createdAt,value
2019-04-22T00:01:17.143Z,28.85
2019-04-22T00:03:55.166Z,22.00
2019-04-22T00:06:52.630Z,32.13
2019-04-22T00:09:34.112Z,31.33
2019-04-22T00:12:06.387Z,25.68
2019-04-22T00:14:35.162Z,26.62
2019-04-22T00:17:23.317Z,25.55
2019-04-22T00:19:57.626Z,26.40
2019-04-22T00:22:29.149Z,23.42
2019-04-22T00:25:07.960Z,25.95
2019-04-22T00:30:21.961Z,28.92
2019-04-22T00:33:18.574Z,28.75
2019-04-22T00:35:48.118Z,28.02
2019-04-22T00:38:33.850Z,34.27
2019-04-22T00:41:08.544Z,29.72
2019-04-22T00:43:41.131Z,43.92
2019-04-22T00:46:17.894Z,66.72
2019-04-22T00:49:28.724Z,36.42
2019-04-22T00:51:31.569Z,37.30
2019-04-22T00:54:10.297Z,34.83
2019-04-22T00:56:40.956Z,35.25
2019-04-22T00:59:17.221Z,34.00
2019-04-22T01:01:52.578Z,37.67
2019-04-22T01:04:35.216Z,43.63
2019-04-22T01:07:09.260Z,31.97
2019-04-22T01:09:44.967Z,30.90
2019-04-22T01:12:24.735Z,34.50
2019-04-22T01:14:55.600Z,32.08
2019-04-22T01:17:35.896Z,31.85
2019-04-22T01:20:17.457Z,29.65
2019-04-22T01:22:47.272Z,31.90
2019-04-22T01:25:20.604Z,32.93
2019-04-22T01:27:48.619Z,38.45
2019-04-22T01:30:24.398Z,30.92
2019-04-22T01:32:51.051Z,39.33
2019-04-22T01:35:36.090Z,35.88
2019-04-22T01:38:13.671Z,38.45
2019-04-22T01:41:04.614Z,35.95
2019-04-22T01:43:40.897Z,35.08
2019-04-22T01:46:23.494Z,37.83
2019-04-22T01:48:54.275Z,36.35
2019-04-22T01:51:35.592Z,36.95
2019-04-22T01:54:05.236Z,33.70
2019-04-22T01:56:40.973Z,40.35
2019-04-22T01:59:12.872Z,38.00
2019-04-22T02:04:31.925Z,35.92
2019-04-22T02:09:45.621Z,41.55
2019-04-22T02:14:50.636Z,44.98
2019-04-22T02:17:31.668Z,54.25
2019-04-22T02:20:05.142Z,54.53
2019-04-22T02:23:43.100Z,52.50
2019-04-22T02:28:39.919Z,50.50
2019-04-22T02:31:25.879Z,55.73
2019-04-22T02:36:43.119Z,53.05
2019-04-22T02:44:26.321Z,43.28
2019-04-22T02:49:47.422Z,44.03
2019-04-22T02:52:14.557Z,41.30
2019-04-22T02:54:49.408Z,49.95
2019-04-22T02:57:30.086Z,46.48
2019-04-22T03:02:41.376Z,42.95
2019-04-22T03:07:55.895Z,44.35
2019-04-22T03:10:29.458Z,42.62
2019-04-22T03:13:01.005Z,42.15
2019-04-22T03:18:09.167Z,38.23
2019-04-22T03:20:50.046Z,42.53
2019-04-22T03:23:45.612Z,39.98
2019-04-22T03:28:37.164Z,41.68
2019-04-22T03:32:32.658Z,45.10
2019-04-22T03:35:20.159Z,42.93
2019-04-22T03:37:35.066Z,38.25
2019-04-22T03:42:27.434Z,39.42
2019-04-22T03:45:10.282Z,36.95
2019-04-22T03:53:01.438Z,39.45
2019-04-22T03:55:32.678Z,44.88
2019-04-22T03:58:01.251Z,46.25
2019-04-22T04:00:43.094Z,44.13
2019-04-22T04:03:11.655Z,41.68
2019-04-22T04:05:57.592Z,38.67
2019-04-22T04:13:39.576Z,42.67
2019-04-22T04:16:19.504Z,36.93
2019-04-22T04:24:24.115Z,40.55
2019-04-22T04:34:54.037Z,39.75
2019-04-22T04:37:22.933Z,43.83
2019-04-22T04:45:11.034Z,68.62
2019-04-22T04:55:24.013Z,315.68
2019-04-22T04:58:03.738Z,156.57
2019-04-22T05:03:10.546Z,115.32
2019-04-22T05:05:54.649Z,107.37
2019-04-22T05:08:30.648Z,81.75
2019-04-22T05:11:01.066Z,86.37
2019-04-22T05:13:39.666Z,84.65
2019-04-22T05:18:47.195Z,75.10
2019-04-22T05:21:17.999Z,73.75
2019-04-22T05:23:58.507Z,51.80
2019-04-22T05:26:32.799Z,63.15
2019-04-22T05:29:05.583Z,54.13
2019-04-22T05:31:37.243Z,57.43
2019-04-22T05:36:52.854Z,57.10
2019-04-22T05:39:33.952Z,54.60
2019-04-22T05:42:10.272Z,59.10
2019-04-22T05:44:48.030Z,69.20
2019-04-22T05:47:15.238Z,58.42
2019-04-22T05:49:49.340Z,55.08
2019-04-22T05:52:25.003Z,49.48
2019-04-22T05:55:10.471Z,54.85
2019-04-22T05:57:38.909Z,54.18
2019-04-22T06:00:25.591Z,50.75
2019-04-22T06:02:56.957Z,54.20
2019-04-22T06:05:32.038Z,40.67
2019-04-22T06:08:08.250Z,39.63
2019-04-22T06:10:50.407Z,43.23
2019-04-22T06:13:18.229Z,44.77
2019-04-22T06:15:53.126Z,36.90
2019-04-22T06:18:33.485Z,34.30
2019-04-22T06:21:11.274Z,41.23
2019-04-22T06:23:46.694Z,39.18
2019-04-22T06:29:06.679Z,31.85
2019-04-22T06:31:49.920Z,30.55
2019-04-22T06:36:54.204Z,32.63
2019-04-22T06:39:29.081Z,31.23
2019-04-22T06:42:01.032Z,32.23
2019-04-22T06:44:36.295Z,34.08
2019-04-22T06:47:25.242Z,33.78
2019-04-22T06:49:53.045Z,33.90
2019-04-22T06:52:22.657Z,27.50
2019-04-22T06:55:24.814Z,41.80
2019-04-22T06:57:36.374Z,45.63
2019-04-22T07:00:18.566Z,33.78
2019-04-22T07:05:27.534Z,32.40
2019-04-22T07:08:18.282Z,26.85
2019-04-22T07:10:47.812Z,35.40
2019-04-22T07:13:23.634Z,34.73
2019-04-22T07:16:00.428Z,25.88
2019-04-22T07:18:36.088Z,41.77
2019-04-22T07:21:10.422Z,60.48
2019-04-22T07:26:18.373Z,62.67
2019-04-22T07:28:56.527Z,69.92
2019-04-22T07:31:50.898Z,61.08
2019-04-22T07:34:17.856Z,56.00
2019-04-22T07:39:25.586Z,71.47
2019-04-22T07:41:58.616Z,52.58
2019-04-22T07:44:33.909Z,55.90
2019-04-22T07:47:13.785Z,58.10
2019-04-22T07:49:47.357Z,55.35
2019-04-22T07:52:24.562Z,48.40
2019-04-22T07:54:56.962Z,55.78
2019-04-22T07:57:32.481Z,51.85
2019-04-22T08:00:09.301Z,53.23
2019-04-22T08:02:53.635Z,58.95
2019-04-22T08:05:20.681Z,53.78
2019-04-22T08:08:05.279Z,57.75
2019-04-22T08:10:38.057Z,47.93
2019-04-22T08:13:11.888Z,50.40
2019-04-22T08:15:48.606Z,42.40
2019-04-22T08:21:02.756Z,43.55
2019-04-22T08:23:36.813Z,50.95
2019-04-22T08:26:13.464Z,60.28
2019-04-22T08:31:29.993Z,43.35
2019-04-22T08:34:05.002Z,50.03
2019-04-22T08:36:41.045Z,46.83
2019-04-22T08:39:14.116Z,40.10
2019-04-22T08:41:39.912Z,46.35
2019-04-22T08:44:49.635Z,40.55
2019-04-22T08:47:17.333Z,41.37
2019-04-22T08:49:46.501Z,36.03
2019-04-22T08:52:16.520Z,43.80
2019-04-22T08:54:53.663Z,36.75
2019-04-22T08:57:43.434Z,34.43
2019-04-22T09:00:02.811Z,34.63
2019-04-22T09:02:43.181Z,36.17
2019-04-22T09:05:22.547Z,34.33
2019-04-22T09:07:59.791Z,39.23
2019-04-22T09:10:36.255Z,28.17
2019-04-22T09:13:13.953Z,31.25
2019-04-22T09:15:49.100Z,30.60
2019-04-22T09:18:14.548Z,32.35
2019-04-22T09:20:59.906Z,28.62
2019-04-22T09:23:30.708Z,31.93
2019-04-22T09:26:05.092Z,32.08
2019-04-22T09:28:44.743Z,28.47
2019-04-22T09:31:18.987Z,36.35
2019-04-22T09:33:50.355Z,32.48
2019-04-22T09:36:33.991Z,33.42
2019-04-22T09:39:02.942Z,30.77
2019-04-22T09:41:41.290Z,32.80
2019-04-22T09:44:14.877Z,30.48
2019-04-22T09:46:53.728Z,26.17
2019-04-22T09:52:02.950Z,29.87
2019-04-22T09:54:49.691Z,30.35
2019-04-22T09:57:20.155Z,28.90
2019-04-22T10:00:00.595Z,28.23
2019-04-22T10:02:39.536Z,28.60
2019-04-22T10:05:08.667Z,28.27
2019-04-22T10:07:39.179Z,34.18
2019-04-22T10:13:12.800Z,30.05
2019-04-22T10:15:28.937Z,32.55
2019-04-22T10:18:02.941Z,33.30
2019-04-22T10:20:47.659Z,35.17
2019-04-22T10:23:20.028Z,27.52
2019-04-22T10:25:57.445Z,26.00
2019-04-22T10:28:36.849Z,27.20
2019-04-22T10:31:12.273Z,28.85
2019-04-22T10:33:36.284Z,26.85
2019-04-22T10:35:57.598Z,29.60
2019-04-22T10:38:32.577Z,30.17
2019-04-22T10:41:08.262Z,29.18
2019-04-22T10:43:43.328Z,25.43
2019-04-22T10:46:18.070Z,23.38
2019-04-22T10:48:52.774Z,26.33
2019-04-22T10:51:30.742Z,25.32
2019-04-22T10:54:05.310Z,28.55
2019-04-22T10:56:40.765Z,28.55
2019-04-22T10:59:16.504Z,30.40
2019-04-22T11:01:50.749Z,26.57
2019-04-22T11:04:26.114Z,27.22
2019-04-22T11:07:03.912Z,28.60
2019-04-22T11:09:50.379Z,31.62
2019-04-22T11:12:17.658Z,30.52
2019-04-22T11:14:49.770Z,29.37
2019-04-22T11:17:24.042Z,22.45
2019-04-22T11:19:59.689Z,32.17
2019-04-22T11:22:36.905Z,23.62
2019-04-22T11:25:11.834Z,29.23
2019-04-22T11:27:47.191Z,26.20
2019-04-22T11:30:25.931Z,28.47
2019-04-22T11:33:00.438Z,25.88
2019-04-22T11:35:35.152Z,22.48
2019-04-22T11:38:10.775Z,25.30
2019-04-22T11:40:49.772Z,26.97
2019-04-22T11:43:21.950Z,27.13
2019-04-22T11:45:57.532Z,23.22
2019-04-22T11:48:31.899Z,23.73
2019-04-22T11:51:06.290Z,30.10
2019-04-22T11:53:40.977Z,25.75
2019-04-22T11:56:16.641Z,22.17
2019-04-22T11:58:51.250Z,23.42
2019-04-22T12:01:26.675Z,24.98
2019-04-22T12:04:02.147Z,20.48
2019-04-22T12:06:37.875Z,22.77
2019-04-22T12:09:15.451Z,23.05
2019-04-22T12:11:49.610Z,23.73
2019-04-22T12:14:24.053Z,23.55
2019-04-22T12:16:59.489Z,24.40
2019-04-22T12:19:35.252Z,25.92
2019-04-22T12:22:11.071Z,18.98
2019-04-22T12:24:46.112Z,21.30
2019-04-22T12:27:22.097Z,21.77
2019-04-22T12:29:56.755Z,22.07
2019-04-22T12:32:31.637Z,23.77
2019-04-22T12:35:07.363Z,20.62
2019-04-22T12:37:51.015Z,24.47
2019-04-22T12:40:30.140Z,21.40
2019-04-22T12:42:55.415Z,25.02
2019-04-22T12:45:30.136Z,21.02
2019-04-22T12:48:04.538Z,20.82
2019-04-22T12:50:43.449Z,20.88
2019-04-22T12:53:18.802Z,23.05
2019-04-22T12:55:54.912Z,20.43
2019-04-22T12:58:27.711Z,20.35
2019-04-22T13:01:03.278Z,21.30
2019-04-22T13:03:38.304Z,20.62
2019-04-22T13:06:14.066Z,20.90
2019-04-22T13:08:49.689Z,24.23
2019-04-22T13:11:30.463Z,28.07
2019-04-22T13:14:00.991Z,32.25
2019-04-22T13:16:35.945Z,34.95
2019-04-22T13:19:13.146Z,37.80
2019-04-22T13:21:48.948Z,68.50
2019-04-22T13:24:23.761Z,73.25
2019-04-22T13:26:59.074Z,73.65
2019-04-22T13:29:34.946Z,71.57
2019-04-22T13:32:10.822Z,64.30
2019-04-22T13:34:49.788Z,57.70
2019-04-22T13:37:23.119Z,48.17
2019-04-22T13:40:00.990Z,43.95
2019-04-22T13:42:37.215Z,56.50
2019-04-22T13:45:13.898Z,48.45
2019-04-22T13:48:08.695Z,41.77
2019-04-22T13:51:01.362Z,42.53
2019-04-22T13:56:05.580Z,35.88
2019-04-22T13:58:31.344Z,36.48
2019-04-22T14:00:52.316Z,38.98
2019-04-22T14:03:44.817Z,29.50
2019-04-22T14:06:20.575Z,30.43
2019-04-22T14:08:55.664Z,29.80
2019-04-22T14:11:36.716Z,32.50
2019-04-22T14:14:06.975Z,33.05
2019-04-22T14:16:42.467Z,29.67
2019-04-22T14:19:18.397Z,27.42
2019-04-22T14:21:53.804Z,23.55
2019-04-22T14:24:28.306Z,27.90
2019-04-22T14:27:19.655Z,27.52
2019-04-22T14:29:39.773Z,24.45
2019-04-22T14:34:51.151Z,31.02
2019-04-22T14:37:25.600Z,25.80
2019-04-22T14:40:00.670Z,26.60
2019-04-22T14:42:56.372Z,27.48
2019-04-22T14:44:42.434Z,26.48
2019-04-22T14:45:42.572Z,23.10
2019-04-22T14:48:10.981Z,30.00
2019-04-22T14:50:46.938Z,25.45
2019-04-22T14:53:21.044Z,21.75
2019-04-22T14:55:38.206Z,27.40
2019-04-22T14:58:13.030Z,25.95
2019-04-22T15:00:49.301Z,26.45
2019-04-22T15:03:23.903Z,24.55
2019-04-22T15:05:59.900Z,28.80
2019-04-22T15:08:35.149Z,24.27
2019-04-22T15:11:10.970Z,24.52
2019-04-22T15:13:45.381Z,27.05
2019-04-22T15:16:42.314Z,25.15
2019-04-22T15:19:33.975Z,24.00
2019-04-22T15:22:08.493Z,26.20
2019-04-22T15:24:43.094Z,34.45
2019-04-22T15:27:18.432Z,33.85
2019-04-22T15:29:53.726Z,30.45
2019-04-22T15:32:29.539Z,26.37
2019-04-22T15:35:04.975Z,24.85
2019-04-22T15:37:39.507Z,25.20
2019-04-22T15:40:13.904Z,28.20
2019-04-22T15:42:48.911Z,34.65
2019-04-22T15:45:24.293Z,26.77
2019-04-22T15:47:59.873Z,29.20
2019-04-22T15:50:35.039Z,27.70
2019-04-22T15:53:09.852Z,26.48
2019-04-22T15:55:44.927Z,27.10
2019-04-22T15:58:19.783Z,24.85
2019-04-22T16:01:05.927Z,22.67
2019-04-22T16:03:30.456Z,21.77
2019-04-22T16:06:06.080Z,27.20
2019-04-22T16:08:41.124Z,27.30
2019-04-22T16:11:15.904Z,28.87
2019-04-22T16:13:50.622Z,32.88
2019-04-22T16:16:25.018Z,23.77
2019-04-22T16:19:00.569Z,23.07
2019-04-22T16:21:45.184Z,25.50
2019-04-22T16:24:34.039Z,25.65
2019-04-22T16:27:14.197Z,28.32
2019-04-22T16:29:49.633Z,28.38
2019-04-22T16:32:25.414Z,27.37
2019-04-22T16:35:00.899Z,27.58
2019-04-22T16:37:36.869Z,25.48
2019-04-22T16:40:12.569Z,29.63
2019-04-22T16:42:54.545Z,29.25
2019-04-22T16:45:23.070Z,29.87
2019-04-22T16:47:57.961Z,38.98
2019-04-22T16:50:32.832Z,30.88
2019-04-22T16:53:08.316Z,30.40
2019-04-22T16:55:44.573Z,35.55
2019-04-22T16:58:19.159Z,40.48
2019-04-22T17:00:54.654Z,30.48
2019-04-22T17:03:56.794Z,33.85
2019-04-22T17:06:35.314Z,42.23
2019-04-22T17:09:14.206Z,32.90
2019-04-22T17:11:48.025Z,41.58
2019-04-22T17:14:29.086Z,39.15
2019-04-22T17:16:58.069Z,40.78
2019-04-22T17:19:33.311Z,34.83
2019-04-22T17:22:07.969Z,50.83
2019-04-22T17:24:43.719Z,33.63
2019-04-22T17:27:18.356Z,35.35
2019-04-22T17:29:54.535Z,37.63
2019-04-22T17:32:29.077Z,43.60
2019-04-22T17:35:04.093Z,43.75
2019-04-22T17:37:39.636Z,40.08
2019-04-22T17:40:32.975Z,34.70
2019-04-22T17:43:26.551Z,36.73
2019-04-22T17:46:14.013Z,35.52
2019-04-22T17:49:10.811Z,37.88
2019-04-22T17:51:45.649Z,32.60
2019-04-22T17:54:21.411Z,33.13
2019-04-22T17:56:54.339Z,33.02
2019-04-22T17:59:32.856Z,30.50
2019-04-22T18:02:05.732Z,42.75
2019-04-22T18:04:29.035Z,38.88
2019-04-22T18:07:24.038Z,32.20
2019-04-22T18:10:23.320Z,37.58
2019-04-22T18:12:40.098Z,34.20
2019-04-22T18:15:09.979Z,37.78
2019-04-22T18:17:46.350Z,39.50
2019-04-22T18:20:17.500Z,32.20
2019-04-22T18:22:50.315Z,34.80
2019-04-22T18:25:29.550Z,38.17
2019-04-22T18:30:37.430Z,31.85
2019-04-22T18:33:24.264Z,32.10
2019-04-22T18:35:54.027Z,35.60
2019-04-22T18:41:09.019Z,29.10
2019-04-22T18:43:47.906Z,32.98
2019-04-22T18:46:21.305Z,28.65
2019-04-22T18:49:00.561Z,29.02
2019-04-22T18:51:42.614Z,26.90
2019-04-22T18:54:33.008Z,29.32
2019-04-22T18:57:07.971Z,41.65
2019-04-22T18:59:28.889Z,32.90
2019-04-22T19:26:55.810Z,35.83
2019-04-22T19:29:12.263Z,28.80
2019-04-22T19:31:52.736Z,37.75
2019-04-22T19:34:28.440Z,33.88
2019-04-22T19:37:02.101Z,33.02
2019-04-22T19:39:31.075Z,28.47
2019-04-22T19:42:16.681Z,30.55
2019-04-22T19:44:50.804Z,28.12
2019-04-22T19:47:30.339Z,28.42
2019-04-22T19:52:40.211Z,30.02
2019-04-22T19:55:21.380Z,37.48
2019-04-22T19:57:47.861Z,33.42
2019-04-22T20:00:32.548Z,30.77
2019-04-22T20:03:53.015Z,27.10
2019-04-22T20:06:33.651Z,27.55
2019-04-22T20:09:13.617Z,27.70
2019-04-22T20:11:44.912Z,27.55
2019-04-22T20:14:24.610Z,33.25
2019-04-22T20:16:54.716Z,30.20
2019-04-22T20:22:08.794Z,28.92
2019-04-22T20:24:34.011Z,28.65
2019-04-22T20:27:25.213Z,31.93
2019-04-22T20:29:58.146Z,23.60
2019-04-22T20:32:31.211Z,31.50
2019-04-22T20:35:15.212Z,25.35
2019-04-22T20:37:50.936Z,25.82
2019-04-22T20:40:25.338Z,24.77
2019-04-22T20:43:22.027Z,26.73
2019-04-22T20:45:39.979Z,23.57
2019-04-22T20:48:05.017Z,25.32
2019-04-22T20:50:48.183Z,27.58
2019-04-22T20:53:32.295Z,30.10
2019-04-22T20:56:00.564Z,33.98
2019-04-22T20:58:40.673Z,27.70
2019-04-22T21:01:05.170Z,24.60
2019-04-22T21:03:39.240Z,29.98
2019-04-22T21:06:23.287Z,31.80
2019-04-22T21:09:01.048Z,28.15
2019-04-22T21:11:34.547Z,28.23
2019-04-22T21:14:11.851Z,26.37
2019-04-22T21:16:53.253Z,30.62
2019-04-22T21:19:38.193Z,29.18
2019-04-22T21:22:03.260Z,30.57
2019-04-22T21:24:36.141Z,27.10
2019-04-22T21:27:18.278Z,29.67
2019-04-22T21:29:39.854Z,30.88
2019-04-22T21:32:25.229Z,33.50
2019-04-22T21:35:05.713Z,37.53
2019-04-22T21:37:43.130Z,42.38
2019-04-22T21:40:18.620Z,38.63
2019-04-22T21:42:58.241Z,33.67
2019-04-22T21:45:21.665Z,32.48
2019-04-22T21:48:15.503Z,32.03
2019-04-22T21:50:52.519Z,29.55
2019-04-22T21:53:22.763Z,28.50
2019-04-22T21:56:00.356Z,37.33
2019-04-22T21:58:56.014Z,32.73
2019-04-22T22:01:49.996Z,41.68
2019-04-22T22:04:17.466Z,43.45
2019-04-22T22:06:42.472Z,49.05
2019-04-22T22:09:31.257Z,42.38
2019-04-22T22:12:05.262Z,45.92
2019-04-22T22:14:40.105Z,42.83
2019-04-22T22:17:17.304Z,45.58
2019-04-22T22:19:54.416Z,41.05
2019-04-22T22:25:07.785Z,44.10
2019-04-22T22:27:41.669Z,48.75
2019-04-22T22:30:40.104Z,48.73
2019-04-22T22:33:01.356Z,43.58
2019-04-22T22:35:31.567Z,38.30
2019-04-22T22:38:10.829Z,43.63
2019-04-22T22:40:28.047Z,38.95
2019-04-22T22:43:05.423Z,40.85
2019-04-22T22:45:44.982Z,40.38
2019-04-22T22:48:38.728Z,39.95
2019-04-22T22:51:07.632Z,42.73
2019-04-22T22:53:51.296Z,42.30
2019-04-22T22:56:35.597Z,47.38
2019-04-22T22:59:00.264Z,43.85
2019-04-22T23:01:36.065Z,41.18
2019-04-22T23:04:16.264Z,42.15
2019-04-22T23:06:53.336Z,42.30
2019-04-22T23:09:22.993Z,35.68
2019-04-22T23:12:24.784Z,39.95
2019-04-22T23:14:38.295Z,39.03
2019-04-22T23:16:57.926Z,36.58
2019-04-22T23:19:26.160Z,41.42
2019-04-22T23:22:06.426Z,40.88
2019-04-22T23:25:00.209Z,37.70
2019-04-22T23:27:40.168Z,36.53
2019-04-22T23:30:23.953Z,36.17
2019-04-22T23:33:26.513Z,40.17
2019-04-22T23:35:57.567Z,46.55
2019-04-22T23:38:47.664Z,44.03
2019-04-22T23:41:48.985Z,43.25
2019-04-22T23:46:48.400Z,38.95
2019-04-22T23:49:25.103Z,41.05
2019-04-22T23:52:11.435Z,36.63
2019-04-22T23:54:51.742Z,40.03
2019-04-22T23:57:27.607Z,38.10
